createdAt,value
2023-05-21T00:01:25.866Z,6.53
2023-05-21T00:06:27.946Z,11.63
2023-05-21T00:11:29.772Z,5.88
2023-05-21T00:16:31.721Z,7.80
2023-05-21T00:21:33.655Z,11.05
2023-05-21T00:26:35.882Z,4.88
2023-05-21T00:31:37.925Z,8.15
2023-05-21T00:36:40.651Z,9.07
2023-05-21T00:41:43.226Z,11.07
2023-05-21T00:46:45.358Z,10.13
2023-05-21T00:51:48.366Z,9.10
2023-05-21T00:56:51.198Z,10.88
2023-05-21T01:01:56.248Z,9.60
2023-05-21T01:06:59.329Z,9.32
2023-05-21T01:12:01.731Z,7.88
2023-05-21T01:17:11.716Z,7.70
2023-05-21T01:22:14.363Z,10.88
2023-05-21T01:27:18.396Z,7.63
2023-05-21T01:32:51.561Z,6.88
2023-05-21T01:37:58.437Z,10.23
2023-05-21T01:43:07.505Z,5.90
2023-05-21T01:48:12.306Z,8.80
2023-05-21T01:53:17.311Z,9.27
2023-05-21T01:58:19.980Z,10.88
2023-05-21T02:03:22.037Z,10.02
2023-05-21T02:08:27.950Z,7.68
2023-05-21T02:13:32.454Z,9.02
2023-05-21T02:18:34.203Z,7.85
2023-05-21T02:23:36.212Z,6.95
2023-05-21T02:28:40.551Z,7.55
2023-05-21T02:33:45.314Z,8.57
2023-05-21T02:38:47.774Z,8.55
2023-05-21T02:43:51.641Z,10.82
2023-05-21T02:48:57.921Z,10.48
2023-05-21T02:54:02.485Z,11.95
2023-05-21T02:59:04.329Z,8.93
2023-05-21T03:04:13.409Z,9.43
2023-05-21T03:09:17.700Z,8.93
2023-05-21T03:14:19.467Z,11.27
2023-05-21T03:19:25.183Z,10.32
2023-05-21T03:24:29.591Z,7.03
2023-05-21T03:29:31.550Z,9.38
2023-05-21T03:34:34.947Z,8.18
2023-05-21T03:39:42.257Z,10.85
2023-05-21T03:44:46.205Z,7.68
2023-05-21T03:50:11.332Z,8.63
2023-05-21T03:55:14.105Z,7.30
2023-05-21T04:00:16.129Z,7.38
2023-05-21T04:05:17.862Z,9.05
2023-05-21T04:10:20.396Z,6.65
2023-05-21T04:15:24.444Z,10.52
2023-05-21T04:20:28.688Z,8.85
2023-05-21T04:25:30.521Z,10.50
2023-05-21T04:30:39.480Z,10.43
2023-05-21T04:35:44.648Z,9.85
2023-05-21T04:40:52.262Z,7.53
2023-05-21T04:45:57.590Z,7.25
2023-05-21T04:50:59.925Z,7.75
2023-05-21T04:56:03.231Z,5.65
2023-05-21T05:01:05.463Z,7.65
2023-05-21T05:06:08.483Z,10.88
2023-05-21T05:11:13.394Z,7.00
2023-05-21T05:16:18.434Z,10.30
2023-05-21T05:21:23.299Z,5.50
2023-05-21T05:26:25.652Z,6.97
2023-05-21T05:31:27.558Z,9.98
2023-05-21T05:36:31.687Z,8.05
2023-05-21T05:41:33.727Z,8.82
2023-05-21T05:46:38.026Z,6.32
2023-05-21T05:51:43.080Z,9.00
2023-05-21T05:56:44.983Z,10.75
2023-05-21T06:01:47.217Z,9.55
2023-05-21T06:06:49.168Z,11.77
2023-05-21T06:11:53.451Z,7.28
2023-05-21T06:16:57.647Z,8.70
2023-05-21T06:22:04.737Z,14.15
2023-05-21T06:27:07.287Z,10.23
2023-05-21T06:32:11.607Z,9.25
2023-05-21T06:37:14.437Z,10.20
2023-05-21T06:42:16.561Z,7.57
2023-05-21T06:47:28.468Z,10.98
2023-05-21T06:52:31.861Z,7.90
2023-05-21T06:57:35.635Z,14.57
2023-05-21T07:02:37.541Z,9.23
2023-05-21T07:07:39.635Z,9.88
2023-05-21T07:12:43.765Z,11.73
2023-05-21T07:17:48.587Z,10.23
2023-05-21T07:22:50.695Z,10.32
2023-05-21T07:27:52.725Z,8.63
2023-05-21T07:32:57.403Z,10.43
2023-05-21T07:38:01.656Z,8.05
2023-05-21T07:43:06.465Z,14.07
2023-05-21T07:48:12.098Z,10.00
2023-05-21T07:53:24.655Z,11.13
2023-05-21T07:58:31.112Z,12.63
2023-05-21T08:03:33.896Z,9.82
2023-05-21T08:08:36.900Z,8.85
2023-05-21T08:13:39.136Z,10.27
2023-05-21T08:18:43.283Z,10.82
2023-05-21T08:23:47.519Z,14.25
2023-05-21T08:28:50.111Z,11.65
2023-05-21T08:33:52.821Z,10.95
2023-05-21T08:39:01.558Z,11.13
2023-05-21T08:44:14.249Z,12.27
2023-05-21T08:49:19.329Z,9.75
2023-05-21T08:54:23.516Z,10.38
2023-05-21T08:59:25.774Z,9.77
2023-05-21T09:04:31.501Z,13.88
2023-05-21T09:09:34.999Z,14.20
2023-05-21T09:14:39.548Z,10.85
2023-05-21T09:20:15.026Z,16.73
2023-05-21T09:25:28.023Z,12.45
2023-05-21T09:30:31.912Z,15.88
2023-05-21T09:35:38.327Z,11.05
2023-05-21T09:40:46.638Z,19.27
2023-05-21T09:45:52.942Z,14.63
2023-05-21T09:51:09.393Z,17.08
2023-05-21T09:56:11.385Z,20.38
2023-05-21T10:01:15.916Z,12.93
2023-05-21T10:06:19.193Z,17.38
2023-05-21T10:11:27.487Z,15.32
2023-05-21T10:16:32.893Z,14.47
2023-05-21T10:21:35.087Z,16.63
2023-05-21T10:26:38.488Z,10.38
2023-05-21T10:31:43.779Z,12.45
2023-05-21T10:36:46.414Z,11.95
2023-05-21T10:42:29.711Z,12.98
2023-05-21T10:48:06.092Z,14.65
2023-05-21T10:53:45.413Z,14.77
2023-05-21T10:59:00.074Z,14.52
2023-05-21T11:04:08.306Z,14.35
2023-05-21T11:09:13.986Z,15.43
2023-05-21T11:14:38.963Z,19.10
2023-05-21T11:19:55.727Z,17.00
2023-05-21T11:25:01.698Z,17.75
2023-05-21T11:30:10.331Z,20.38
2023-05-21T11:35:14.103Z,16.90
2023-05-21T11:40:31.118Z,19.08
2023-05-21T11:45:35.271Z,18.00
2023-05-21T11:50:42.362Z,21.23
2023-05-21T11:55:47.434Z,17.45
2023-05-21T12:00:53.867Z,15.93
2023-05-21T12:06:05.521Z,17.30
2023-05-21T12:11:07.432Z,19.13
2023-05-21T12:16:14.183Z,20.80
2023-05-21T12:21:15.979Z,19.38
2023-05-21T12:26:20.033Z,20.17
2023-05-21T12:31:23.271Z,19.27
2023-05-21T12:36:34.384Z,17.52
2023-05-21T12:41:42.986Z,21.30
2023-05-21T12:46:44.952Z,19.65
2023-05-21T12:51:50.227Z,17.77
2023-05-21T12:56:51.975Z,18.92
2023-05-21T13:01:56.747Z,24.83
2023-05-21T13:07:02.864Z,16.85
2023-05-21T13:12:09.450Z,20.13
2023-05-21T13:17:13.852Z,14.20
2023-05-21T13:22:15.734Z,15.80
2023-05-21T13:27:21.011Z,17.55
2023-05-21T13:32:23.019Z,15.13
2023-05-21T13:37:27.203Z,14.98
2023-05-21T13:42:29.049Z,15.80
2023-05-21T13:47:30.937Z,15.75
2023-05-21T13:52:32.728Z,15.93
2023-05-21T13:57:34.648Z,17.67
2023-05-21T14:02:36.621Z,16.23
2023-05-21T14:07:43.325Z,15.30
2023-05-21T14:12:48.647Z,15.85
2023-05-21T14:17:52.324Z,19.13
2023-05-21T14:22:54.183Z,15.90
2023-05-21T14:27:58.276Z,16.67
2023-05-21T14:33:05.704Z,16.83
2023-05-21T14:38:07.666Z,17.67
2023-05-21T14:43:12.409Z,17.35
2023-05-21T14:48:24.697Z,19.98
2023-05-21T14:53:28.709Z,18.75
2023-05-21T14:58:34.758Z,18.50
2023-05-21T15:03:39.645Z,18.75
2023-05-21T15:08:48.604Z,19.92
2023-05-21T15:13:55.067Z,17.00
2023-05-21T15:18:56.895Z,24.63
2023-05-21T15:23:58.713Z,16.95
2023-05-21T15:29:03.928Z,15.45
2023-05-21T15:34:05.814Z,15.05
2023-05-21T15:39:07.790Z,18.83
2023-05-21T15:44:09.586Z,15.85
2023-05-21T15:49:13.540Z,15.38
2023-05-21T15:54:15.558Z,19.95
2023-05-21T15:59:20.803Z,14.40
2023-05-21T16:04:24.935Z,13.88
2023-05-21T16:09:31.609Z,14.80
2023-05-21T16:14:35.911Z,16.40
2023-05-21T16:19:40.419Z,19.33
2023-05-21T16:24:42.371Z,15.13
2023-05-21T16:29:44.728Z,15.50
2023-05-21T16:34:46.567Z,18.33
2023-05-21T16:39:48.369Z,16.00
2023-05-21T16:44:50.453Z,14.45
2023-05-21T16:49:52.759Z,17.05
2023-05-21T16:54:54.525Z,17.13
2023-05-21T16:59:58.924Z,17.17
2023-05-21T17:05:05.336Z,15.18
2023-05-21T17:10:12.278Z,16.58
2023-05-21T17:15:14.065Z,15.70
2023-05-21T17:20:18.214Z,16.35
2023-05-21T17:25:22.479Z,13.77
2023-05-21T17:30:24.474Z,18.38
2023-05-21T17:35:28.532Z,14.00
2023-05-21T17:40:32.515Z,14.63
2023-05-21T17:45:34.383Z,14.80
2023-05-21T17:50:36.195Z,16.88
2023-05-21T17:55:38.214Z,17.30
2023-05-21T18:00:40.448Z,16.02
2023-05-21T18:05:44.658Z,15.32
2023-05-21T18:10:48.029Z,16.00
2023-05-21T18:15:49.915Z,14.57
2023-05-21T18:20:55.574Z,14.63
2023-05-21T18:25:57.397Z,15.90
2023-05-21T18:31:03.835Z,14.63
2023-05-21T18:36:05.946Z,13.93
2023-05-21T18:41:10.019Z,14.02
2023-05-21T18:46:14.395Z,12.80
2023-05-21T18:51:16.279Z,12.07
2023-05-21T18:56:18.140Z,14.55
2023-05-21T19:01:19.946Z,10.73
2023-05-21T19:06:25.581Z,13.95
2023-05-21T19:11:31.037Z,12.27
2023-05-21T19:16:35.328Z,13.13
2023-05-21T19:21:42.097Z,13.13
2023-05-21T19:26:43.828Z,13.85
2023-05-21T19:31:48.768Z,11.68
2023-05-21T19:36:53.674Z,14.18
2023-05-21T19:41:57.810Z,12.35
2023-05-21T19:47:04.929Z,12.55
2023-05-21T19:52:06.749Z,12.38
2023-05-21T19:57:13.220Z,12.05
2023-05-21T20:02:17.090Z,13.85
2023-05-21T20:07:18.940Z,14.30
2023-05-21T20:12:23.573Z,12.82
2023-05-21T20:17:25.572Z,11.70
2023-05-21T20:22:28.166Z,12.75
2023-05-21T20:27:34.460Z,14.30
2023-05-21T20:32:37.490Z,12.15
2023-05-21T20:37:44.202Z,16.60
2023-05-21T20:42:50.417Z,13.60
2023-05-21T20:47:53.628Z,16.25
2023-05-21T20:52:55.494Z,18.58
2023-05-21T20:58:00.218Z,14.82
2023-05-21T21:03:03.857Z,14.65
2023-05-21T21:08:08.285Z,17.85
2023-05-21T21:13:10.307Z,16.15
2023-05-21T21:18:12.592Z,16.60
2023-05-21T21:23:17.506Z,17.25
2023-05-21T21:28:22.248Z,13.38
2023-05-21T21:33:26.556Z,15.85
2023-05-21T21:38:33.033Z,17.10
2023-05-21T21:43:34.994Z,16.80
2023-05-21T21:48:36.720Z,16.42
2023-05-21T21:53:42.938Z,14.52
2023-05-21T21:58:45.042Z,15.00
2023-05-21T22:03:46.932Z,14.82
2023-05-21T22:08:48.746Z,18.40
2023-05-21T22:13:50.644Z,18.33
2023-05-21T22:18:54.154Z,15.20
2023-05-21T22:23:56.252Z,15.48
2023-05-21T22:28:59.089Z,15.48
2023-05-21T22:34:00.814Z,14.77
2023-05-21T22:39:02.576Z,19.73
2023-05-21T22:44:06.714Z,17.88
2023-05-21T22:49:10.723Z,17.65
2023-05-21T22:54:14.737Z,16.00
2023-05-21T22:59:18.702Z,15.77
2023-05-21T23:04:35.786Z,15.05
2023-05-21T23:09:44.273Z,16.13
2023-05-21T23:14:49.056Z,17.40
2023-05-21T23:19:52.436Z,14.55
2023-05-21T23:24:56.395Z,14.95
2023-05-21T23:30:00.405Z,18.75
2023-05-21T23:35:08.175Z,17.20
2023-05-21T23:40:10.975Z,16.77
2023-05-21T23:45:12.790Z,15.70
2023-05-21T23:50:16.859Z,17.52
2023-05-21T23:55:21.094Z,15.52
